Hoanya Wisdom — 3EQU7 — position and weather

sailwx.info

Track history (hours):
 
Tides and Currents Weather Stations Pressure Air Temp Water Temp Dewpoint Dewpoint Depression Visibility Wind Speed Wind Dir Waves Ship Positions

Hoanya Wisdom

Last reported at 2018-Jan-11 16:31 UTC. Time now 2018-Feb-24 12:21 UTC.
Position N 35°58' W 005°59'.
Warning: this ship's position is 43 days out of date.

Length 152 m; draft 5.6 m.

MMSI: 355824000.

Date/timePositionNaut miles runAvg speedWind from/ knotsBaromVisibWave heightAir tempDewpointWater temp
2018-Jan-11 16:31N 35°58' W 005°59'011.9
2018-Jan-11 16:29N 35°58' W 005°58'611.7
2018-Jan-11 16:00N 35°58' W 005°51'711.4
2018-Jan-11 15:23N 35°58' W 005°42'410.4
2018-Jan-11 15:00N 35°58' W 005°38'510.0
2018-Jan-11 14:30N 35°59' W 005°31'4 8.9
2018-Jan-11 14:00N 35°60' W 005°26'5 9.7
2018-Jan-11 13:30N 36°02' W 005°21'4 7.3
2018-Jan-11 13:00N 36°04' W 005°17'3 6.3
2018-Jan-11 12:30N 36°05' W 005°13'4 7.7
2018-Jan-11 12:00N 36°04' W 005°09'4 7.9
2018-Jan-11 11:30N 36°06' W 005°05'510.0
2018-Jan-11 11:00N 36°07' W 004°59'5 9.3
2018-Jan-11 10:29N 36°08' W 004°53'510.4
2018-Jan-11 09:59N 36°08' W 004°46'511.2
2018-Jan-11 09:30N 36°07' W 004°40'610.7
2018-Jan-11 08:58N 36°07' W 004°33'12 6.3
2018-Jan-11 07:07N 36°06' W 004°18'0 2.3
2018-Jan-11 06:58N 36°06' W 004°19'2 2.0
2018-Jan-11 05:54N 36°07' W 004°21'1 1.9
2018-Jan-11 05:27N 36°08' W 004°22'2 2.1
2018-Jan-11 04:27N 36°09' W 004°24'1 2.2
2018-Jan-11 03:58N 36°09' W 004°25'2 2.7
2018-Jan-11 03:25N 36°10' W 004°27'42 3.4
2018-Jan-10 15:00N 35°57' W 005°16'4 7.0
2018-Jan-10 14:30N 35°55' W 005°20'0 0.1
2018-Jan-10 14:00N 35°55' W 005°20'0 0.0
2018-Jan-10 13:30N 35°55' W 005°20'0 0.0
2018-Jan-10 13:00N 35°55' W 005°20'0 0.0
2018-Jan-10 12:30N 35°55' W 005°20'0 0.1
2018-Jan-10 12:00N 35°55' W 005°20'0 0.0
2018-Jan-10 11:30N 35°55' W 005°20'0 0.0
2018-Jan-10 11:00N 35°55' W 005°20'0 0.0
2018-Jan-10 10:30N 35°55' W 005°20'0 0.0
2018-Jan-10 10:00N 35°55' W 005°20'0 0.0
2018-Jan-10 09:30N 35°55' W 005°20'0 0.0
2018-Jan-10 09:00N 35°55' W 005°20'0 0.0
2018-Jan-10 08:30N 35°55' W 005°20'0 0.0
2018-Jan-10 08:00N 35°55' W 005°20'0 0.0
2018-Jan-10 07:30N 35°55' W 005°20'0 0.0
2018-Jan-10 07:00N 35°55' W 005°20'0 0.0
2018-Jan-10 06:30N 35°55' W 005°20'0 0.1
2018-Jan-10 06:00N 35°55' W 005°20'0 0.0
2018-Jan-10 05:30N 35°55' W 005°20'0 0.1
2018-Jan-10 05:00N 35°55' W 005°20'0 0.1
2018-Jan-10 04:30N 35°55' W 005°20'0 0.0
2018-Jan-10 04:00N 35°55' W 005°20'0 0.0
2018-Jan-10 03:30N 35°55' W 005°20'0 0.1
2018-Jan-10 03:00N 35°55' W 005°20'0 0.1
2018-Jan-10 02:30N 35°55' W 005°20'0 0.1
2018-Jan-10 02:00N 35°55' W 005°20'0 0.2
2018-Jan-10 01:30N 35°55' W 005°20'0 0.1
2018-Jan-10 00:57N 35°55' W 005°20'0 0.0
2018-Jan-10 00:30N 35°55' W 005°20'0 0.0
2018-Jan-10 00:00N 35°55' W 005°20'0 0.1
2018-Jan-09 23:30N 35°55' W 005°20'0 0.1
2018-Jan-09 23:00N 35°55' W 005°20'0 0.1
2018-Jan-09 22:30N 35°55' W 005°20'0 0.1
2018-Jan-09 22:00N 35°55' W 005°20'0 0.1
2018-Jan-09 21:30N 35°55' W 005°20'0 0.0
2018-Jan-09 21:00N 35°55' W 005°20'0 0.0
2018-Jan-09 20:30N 35°55' W 005°20'0 0.0
2018-Jan-09 20:00N 35°55' W 005°20'0 0.1
2018-Jan-09 19:30N 35°55' W 005°20'0 0.1
2018-Jan-09 19:00N 35°55' W 005°20'0 0.0
2018-Jan-09 18:30N 35°55' W 005°20'0 0.0
2018-Jan-09 18:00N 35°55' W 005°20'0 0.0
2018-Jan-09 17:30N 35°55' W 005°20'0 0.1
2018-Jan-09 17:00N 35°55' W 005°20'0 0.0
2018-Jan-09 16:30N 35°55' W 005°20'0 0.0
2018-Jan-09 16:00N 35°55' W 005°20'0 0.0
2018-Jan-09 15:30N 35°55' W 005°20'0 0.0
2018-Jan-09 15:00N 35°55' W 005°20'0 0.0
2018-Jan-09 14:30N 35°55' W 005°20'0 0.0
2018-Jan-09 14:00N 35°55' W 005°20'0 0.1
2018-Jan-09 13:30N 35°55' W 005°20'0 0.0
2018-Jan-09 13:00N 35°55' W 005°20'0 0.0
2018-Jan-09 12:30N 35°55' W 005°20'0 0.2
2018-Jan-09 12:00N 35°55' W 005°20'0 0.1
2018-Jan-09 11:30N 35°55' W 005°20'0 0.1
2018-Jan-09 11:00N 35°55' W 005°20'0 0.0
2018-Jan-09 10:30N 35°55' W 005°20'0 0.1
2018-Jan-09 10:00N 35°55' W 005°20'0 0.0
2018-Jan-09 09:30N 35°55' W 005°20'0 0.1
2018-Jan-09 09:00N 35°55' W 005°20'0 0.0
2018-Jan-09 08:30N 35°55' W 005°20'0 0.0
2018-Jan-09 08:00N 35°55' W 005°20'0 0.0
2018-Jan-09 07:30N 35°55' W 005°20'0 0.0
2018-Jan-09 07:00N 35°55' W 005°20'0 0.0
2018-Jan-09 06:30N 35°55' W 005°20'0 0.1
2018-Jan-09 06:00N 35°55' W 005°20'0 0.0
2018-Jan-09 05:30N 35°55' W 005°20'0 0.1
2018-Jan-09 05:00N 35°55' W 005°20'0 0.0
2018-Jan-09 04:30N 35°55' W 005°20'0 0.1
2018-Jan-09 04:00N 35°55' W 005°20'0 0.0
2018-Jan-09 03:30N 35°55' W 005°20'0 0.0
2018-Jan-09 03:00N 35°55' W 005°20'0 0.0
2018-Jan-09 02:30N 35°55' W 005°20'0 0.1
2018-Jan-09 02:00N 35°55' W 005°20'0 0.2
2018-Jan-09 01:30N 35°55' W 005°20'0 0.0
2018-Jan-09 01:00N 35°55' W 005°20'0 0.1
2018-Jan-09 00:30N 35°55' W 005°20'0 0.1
2018-Jan-09 00:00N 35°55' W 005°20'0 0.1
2018-Jan-08 23:30N 35°55' W 005°20'0 0.1
2018-Jan-08 23:00N 35°55' W 005°20'0 0.2
2018-Jan-08 22:30N 35°55' W 005°20'0 0.0
2018-Jan-08 22:00N 35°55' W 005°20'0 0.0
2018-Jan-08 21:30N 35°55' W 005°20'0 0.1
2018-Jan-08 21:00N 35°55' W 005°20'0 0.1
2018-Jan-08 20:30N 35°55' W 005°20'0 0.0
2018-Jan-08 20:00N 35°55' W 005°20'0 0.3
2018-Jan-08 19:30N 35°55' W 005°20'0 0.1
2018-Jan-08 19:00N 35°55' W 005°20'0 0.1
2018-Jan-08 18:30N 35°55' W 005°20'0 0.0
2018-Jan-08 18:00N 35°55' W 005°20'0 0.0
2018-Jan-08 17:30N 35°55' W 005°20'0 0.1
2018-Jan-08 17:00N 35°55' W 005°20'0 0.0
2018-Jan-08 16:30N 35°55' W 005°20'0 0.0
2018-Jan-08 16:00N 35°55' W 005°20'0 0.2
2018-Jan-08 15:30N 35°55' W 005°20'0 0.0
2018-Jan-08 15:00N 35°55' W 005°20'0 0.1
2018-Jan-08 14:30N 35°55' W 005°20'0 0.1
2018-Jan-08 14:00N 35°55' W 005°20'0 0.4
2018-Jan-08 13:30N 35°55' W 005°20'0 0.1
2018-Jan-08 13:00N 35°55' W 005°20'0 0.0
2018-Jan-08 12:30N 35°55' W 005°20'0 0.0
2018-Jan-08 12:00N 35°55' W 005°20'0 0.0
2018-Jan-08 11:30N 35°55' W 005°20'0 0.1
2018-Jan-08 11:00N 35°55' W 005°20'0 0.0
2018-Jan-08 10:30N 35°55' W 005°20'0 0.0
2018-Jan-08 10:00N 35°55' W 005°20'0 0.1
2018-Jan-08 09:30N 35°55' W 005°20'0 0.1
2018-Jan-08 09:00N 35°55' W 005°20'0 0.0
2018-Jan-08 08:30N 35°55' W 005°20'0 0.1
2018-Jan-08 08:00N 35°55' W 005°20'0 0.0
2018-Jan-08 07:30N 35°55' W 005°20'0 0.0
2018-Jan-08 07:00N 35°55' W 005°20'0 0.0
2018-Jan-08 06:30N 35°55' W 005°20'0 0.1
2018-Jan-08 06:00N 35°55' W 005°20'0 0.0
2018-Jan-08 05:30N 35°55' W 005°20'0 0.0
2018-Jan-08 05:00N 35°55' W 005°20'0 0.0
2018-Jan-08 04:30N 35°55' W 005°20'0 0.0
2018-Jan-08 04:00N 35°55' W 005°20'0 0.0
2018-Jan-08 03:30N 35°55' W 005°20'0 0.0
2018-Jan-08 03:00N 35°55' W 005°20'0 0.0
2018-Jan-08 02:30N 35°55' W 005°20'0 0.0
2018-Jan-08 02:00N 35°55' W 005°20'0 0.1
2018-Jan-08 01:30N 35°55' W 005°20'0 0.1
2018-Jan-08 01:00N 35°55' W 005°20'0 0.0
2018-Jan-08 00:30N 35°55' W 005°20'0 0.0
2018-Jan-08 00:00N 35°55' W 005°20'0 0.1
2018-Jan-07 23:27N 35°55' W 005°20'0 0.1
2018-Jan-07 23:00N 35°55' W 005°20'0 0.0
2018-Jan-07 22:30N 35°55' W 005°20'0 0.1
2018-Jan-07 22:00N 35°55' W 005°20'1 1.4
2018-Jan-07 21:30N 35°55' W 005°19'2 4.1
2018-Jan-07 21:00N 35°56' W 005°17'327 9.5
2018-Jan-06 10:31N 36°53' E 001°23'212.0
2018-Jan-06 10:23N 36°53' E 001°25'512.0
2018-Jan-06 10:00N 36°54' E 001°31'611.6
2018-Jan-06 09:30N 36°55' E 001°38'611.7
2018-Jan-06 09:00N 36°56' E 001°45'611.8
2018-Jan-06 08:30N 36°57' E 001°53'611.6
2018-Jan-06 08:00N 36°57' E 001°60'612.7
2018-Jan-06 07:30N 36°58' E 002°08'612.8
2018-Jan-06 07:00N 36°59' E 002°16'612.5
2018-Jan-06 06:30N 37°01' E 002°23'612.4
2018-Jan-06 06:00N 37°01' E 002°31'612.7
2018-Jan-06 05:30N 37°02' E 002°39'612.5
2018-Jan-06 05:00N 37°03' E 002°47'612.2
2018-Jan-06 04:30N 37°04' E 002°54'612.3
2018-Jan-06 04:00N 37°05' E 003°02'612.5
2018-Jan-06 03:30N 37°06' E 003°09'612.7
2018-Jan-06 03:00N 37°07' E 003°17'612.7
2018-Jan-06 02:30N 37°08' E 003°25'612.8
2018-Jan-06 02:00N 37°09' E 003°33'612.9
2018-Jan-06 01:30N 37°10' E 003°41'712.6
2018-Jan-06 00:58N 37°11' E 003°49'613.0
2018-Jan-06 00:29N 37°12' E 003°57'812.6
2018-Jan-05 23:51N 37°13' E 004°07'412.2
2018-Jan-05 23:30N 37°14' E 004°12'21512.2
2018-Jan-05 05:52N 38°25' E 008°29'  
Track history (hours):
 
Tides and Currents Weather Stations Pressure Air Temp Water Temp Dewpoint Dewpoint Depression Visibility Wind Speed Wind Dir Waves Ship Positions

Hoanya Wisdom

Last reported at 2018-Jan-11 16:31 UTC. Time now 2018-Feb-24 12:21 UTC.
Position N 35°58' W 005°59'.
Warning: this ship's position is 43 days out of date.

Length 152 m; draft 5.6 m.

MMSI: 355824000.

Date/timePositionNaut miles runAvg speedWind from/ knotsBaromVisibWave heightAir tempDewpointWater temp
2018-Jan-11 16:31N 35°58' W 005°59'011.9
2018-Jan-11 16:29N 35°58' W 005°58'611.7
2018-Jan-11 16:00N 35°58' W 005°51'711.4
2018-Jan-11 15:23N 35°58' W 005°42'410.4
2018-Jan-11 15:00N 35°58' W 005°38'510.0
2018-Jan-11 14:30N 35°59' W 005°31'4 8.9
2018-Jan-11 14:00N 35°60' W 005°26'5 9.7
2018-Jan-11 13:30N 36°02' W 005°21'4 7.3
2018-Jan-11 13:00N 36°04' W 005°17'3 6.3
2018-Jan-11 12:30N 36°05' W 005°13'4 7.7
2018-Jan-11 12:00N 36°04' W 005°09'4 7.9
2018-Jan-11 11:30N 36°06' W 005°05'510.0
2018-Jan-11 11:00N 36°07' W 004°59'5 9.3
2018-Jan-11 10:29N 36°08' W 004°53'510.4
2018-Jan-11 09:59N 36°08' W 004°46'511.2
2018-Jan-11 09:30N 36°07' W 004°40'610.7
2018-Jan-11 08:58N 36°07' W 004°33'12 6.3
2018-Jan-11 07:07N 36°06' W 004°18'0 2.3
2018-Jan-11 06:58N 36°06' W 004°19'2 2.0
2018-Jan-11 05:54N 36°07' W 004°21'1 1.9
2018-Jan-11 05:27N 36°08' W 004°22'2 2.1
2018-Jan-11 04:27N 36°09' W 004°24'1 2.2
2018-Jan-11 03:58N 36°09' W 004°25'2 2.7
2018-Jan-11 03:25N 36°10' W 004°27'42 3.4
2018-Jan-10 15:00N 35°57' W 005°16'4 7.0
2018-Jan-10 14:30N 35°55' W 005°20'0 0.1
2018-Jan-10 14:00N 35°55' W 005°20'0 0.0
2018-Jan-10 13:30N 35°55' W 005°20'0 0.0
2018-Jan-10 13:00N 35°55' W 005°20'0 0.0
2018-Jan-10 12:30N 35°55' W 005°20'0 0.1
2018-Jan-10 12:00N 35°55' W 005°20'0 0.0
2018-Jan-10 11:30N 35°55' W 005°20'0 0.0
2018-Jan-10 11:00N 35°55' W 005°20'0 0.0
2018-Jan-10 10:30N 35°55' W 005°20'0 0.0
2018-Jan-10 10:00N 35°55' W 005°20'0 0.0
2018-Jan-10 09:30N 35°55' W 005°20'0 0.0
2018-Jan-10 09:00N 35°55' W 005°20'0 0.0
2018-Jan-10 08:30N 35°55' W 005°20'0 0.0
2018-Jan-10 08:00N 35°55' W 005°20'0 0.0
2018-Jan-10 07:30N 35°55' W 005°20'0 0.0
2018-Jan-10 07:00N 35°55' W 005°20'0 0.0
2018-Jan-10 06:30N 35°55' W 005°20'0 0.1
2018-Jan-10 06:00N 35°55' W 005°20'0 0.0
2018-Jan-10 05:30N 35°55' W 005°20'0 0.1
2018-Jan-10 05:00N 35°55' W 005°20'0 0.1
2018-Jan-10 04:30N 35°55' W 005°20'0 0.0
2018-Jan-10 04:00N 35°55' W 005°20'0 0.0
2018-Jan-10 03:30N 35°55' W 005°20'0 0.1
2018-Jan-10 03:00N 35°55' W 005°20'0 0.1
2018-Jan-10 02:30N 35°55' W 005°20'0 0.1
2018-Jan-10 02:00N 35°55' W 005°20'0 0.2
2018-Jan-10 01:30N 35°55' W 005°20'0 0.1
2018-Jan-10 00:57N 35°55' W 005°20'0 0.0
2018-Jan-10 00:30N 35°55' W 005°20'0 0.0
2018-Jan-10 00:00N 35°55' W 005°20'0 0.1
2018-Jan-09 23:30N 35°55' W 005°20'0 0.1
2018-Jan-09 23:00N 35°55' W 005°20'0 0.1
2018-Jan-09 22:30N 35°55' W 005°20'0 0.1
2018-Jan-09 22:00N 35°55' W 005°20'0 0.1
2018-Jan-09 21:30N 35°55' W 005°20'0 0.0
2018-Jan-09 21:00N 35°55' W 005°20'0 0.0
2018-Jan-09 20:30N 35°55' W 005°20'0 0.0
2018-Jan-09 20:00N 35°55' W 005°20'0 0.1
2018-Jan-09 19:30N 35°55' W 005°20'0 0.1
2018-Jan-09 19:00N 35°55' W 005°20'0 0.0
2018-Jan-09 18:30N 35°55' W 005°20'0 0.0
2018-Jan-09 18:00N 35°55' W 005°20'0 0.0
2018-Jan-09 17:30N 35°55' W 005°20'0 0.1
2018-Jan-09 17:00N 35°55' W 005°20'0 0.0
2018-Jan-09 16:30N 35°55' W 005°20'0 0.0
2018-Jan-09 16:00N 35°55' W 005°20'0 0.0
2018-Jan-09 15:30N 35°55' W 005°20'0 0.0
2018-Jan-09 15:00N 35°55' W 005°20'0 0.0
2018-Jan-09 14:30N 35°55' W 005°20'0 0.0
2018-Jan-09 14:00N 35°55' W 005°20'0 0.1
2018-Jan-09 13:30N 35°55' W 005°20'0 0.0
2018-Jan-09 13:00N 35°55' W 005°20'0 0.0
2018-Jan-09 12:30N 35°55' W 005°20'0 0.2
2018-Jan-09 12:00N 35°55' W 005°20'0 0.1
2018-Jan-09 11:30N 35°55' W 005°20'0 0.1
2018-Jan-09 11:00N 35°55' W 005°20'0 0.0
2018-Jan-09 10:30N 35°55' W 005°20'0 0.1
2018-Jan-09 10:00N 35°55' W 005°20'0 0.0
2018-Jan-09 09:30N 35°55' W 005°20'0 0.1
2018-Jan-09 09:00N 35°55' W 005°20'0 0.0
2018-Jan-09 08:30N 35°55' W 005°20'0 0.0
2018-Jan-09 08:00N 35°55' W 005°20'0 0.0
2018-Jan-09 07:30N 35°55' W 005°20'0 0.0
2018-Jan-09 07:00N 35°55' W 005°20'0 0.0
2018-Jan-09 06:30N 35°55' W 005°20'0 0.1
2018-Jan-09 06:00N 35°55' W 005°20'0 0.0
2018-Jan-09 05:30N 35°55' W 005°20'0 0.1
2018-Jan-09 05:00N 35°55' W 005°20'0 0.0
2018-Jan-09 04:30N 35°55' W 005°20'0 0.1
2018-Jan-09 04:00N 35°55' W 005°20'0 0.0
2018-Jan-09 03:30N 35°55' W 005°20'0 0.0
2018-Jan-09 03:00N 35°55' W 005°20'0 0.0
2018-Jan-09 02:30N 35°55' W 005°20'0 0.1
2018-Jan-09 02:00N 35°55' W 005°20'0 0.2
2018-Jan-09 01:30N 35°55' W 005°20'0 0.0
2018-Jan-09 01:00N 35°55' W 005°20'0 0.1
2018-Jan-09 00:30N 35°55' W 005°20'0 0.1
2018-Jan-09 00:00N 35°55' W 005°20'0 0.1
2018-Jan-08 23:30N 35°55' W 005°20'0 0.1
2018-Jan-08 23:00N 35°55' W 005°20'0 0.2
2018-Jan-08 22:30N 35°55' W 005°20'0 0.0
2018-Jan-08 22:00N 35°55' W 005°20'0 0.0
2018-Jan-08 21:30N 35°55' W 005°20'0 0.1
2018-Jan-08 21:00N 35°55' W 005°20'0 0.1
2018-Jan-08 20:30N 35°55' W 005°20'0 0.0
2018-Jan-08 20:00N 35°55' W 005°20'0 0.3
2018-Jan-08 19:30N 35°55' W 005°20'0 0.1
2018-Jan-08 19:00N 35°55' W 005°20'0 0.1
2018-Jan-08 18:30N 35°55' W 005°20'0 0.0
2018-Jan-08 18:00N 35°55' W 005°20'0 0.0
2018-Jan-08 17:30N 35°55' W 005°20'0 0.1
2018-Jan-08 17:00N 35°55' W 005°20'0 0.0
2018-Jan-08 16:30N 35°55' W 005°20'0 0.0
2018-Jan-08 16:00N 35°55' W 005°20'0 0.2
2018-Jan-08 15:30N 35°55' W 005°20'0 0.0
2018-Jan-08 15:00N 35°55' W 005°20'0 0.1
2018-Jan-08 14:30N 35°55' W 005°20'0 0.1
2018-Jan-08 14:00N 35°55' W 005°20'0 0.4
2018-Jan-08 13:30N 35°55' W 005°20'0 0.1
2018-Jan-08 13:00N 35°55' W 005°20'0 0.0
2018-Jan-08 12:30N 35°55' W 005°20'0 0.0
2018-Jan-08 12:00N 35°55' W 005°20'0 0.0
2018-Jan-08 11:30N 35°55' W 005°20'0 0.1
2018-Jan-08 11:00N 35°55' W 005°20'0 0.0
2018-Jan-08 10:30N 35°55' W 005°20'0 0.0
2018-Jan-08 10:00N 35°55' W 005°20'0 0.1
2018-Jan-08 09:30N 35°55' W 005°20'0 0.1
2018-Jan-08 09:00N 35°55' W 005°20'0 0.0
2018-Jan-08 08:30N 35°55' W 005°20'0 0.1
2018-Jan-08 08:00N 35°55' W 005°20'0 0.0
2018-Jan-08 07:30N 35°55' W 005°20'0 0.0
2018-Jan-08 07:00N 35°55' W 005°20'0 0.0
2018-Jan-08 06:30N 35°55' W 005°20'0 0.1
2018-Jan-08 06:00N 35°55' W 005°20'0 0.0
2018-Jan-08 05:30N 35°55' W 005°20'0 0.0
2018-Jan-08 05:00N 35°55' W 005°20'0 0.0
2018-Jan-08 04:30N 35°55' W 005°20'0 0.0
2018-Jan-08 04:00N 35°55' W 005°20'0 0.0
2018-Jan-08 03:30N 35°55' W 005°20'0 0.0
2018-Jan-08 03:00N 35°55' W 005°20'0 0.0
2018-Jan-08 02:30N 35°55' W 005°20'0 0.0
2018-Jan-08 02:00N 35°55' W 005°20'0 0.1
2018-Jan-08 01:30N 35°55' W 005°20'0 0.1
2018-Jan-08 01:00N 35°55' W 005°20'0 0.0
2018-Jan-08 00:30N 35°55' W 005°20'0 0.0
2018-Jan-08 00:00N 35°55' W 005°20'0 0.1
2018-Jan-07 23:27N 35°55' W 005°20'0 0.1
2018-Jan-07 23:00N 35°55' W 005°20'0 0.0
2018-Jan-07 22:30N 35°55' W 005°20'0 0.1
2018-Jan-07 22:00N 35°55' W 005°20'1 1.4
2018-Jan-07 21:30N 35°55' W 005°19'2 4.1
2018-Jan-07 21:00N 35°56' W 005°17'327 9.5
2018-Jan-06 10:31N 36°53' E 001°23'212.0
2018-Jan-06 10:23N 36°53' E 001°25'512.0
2018-Jan-06 10:00N 36°54' E 001°31'611.6
2018-Jan-06 09:30N 36°55' E 001°38'611.7
2018-Jan-06 09:00N 36°56' E 001°45'611.8
2018-Jan-06 08:30N 36°57' E 001°53'611.6
2018-Jan-06 08:00N 36°57' E 001°60'612.7
2018-Jan-06 07:30N 36°58' E 002°08'612.8
2018-Jan-06 07:00N 36°59' E 002°16'612.5
2018-Jan-06 06:30N 37°01' E 002°23'612.4
2018-Jan-06 06:00N 37°01' E 002°31'612.7
2018-Jan-06 05:30N 37°02' E 002°39'612.5
2018-Jan-06 05:00N 37°03' E 002°47'612.2
2018-Jan-06 04:30N 37°04' E 002°54'612.3
2018-Jan-06 04:00N 37°05' E 003°02'612.5
2018-Jan-06 03:30N 37°06' E 003°09'612.7
2018-Jan-06 03:00N 37°07' E 003°17'612.7
2018-Jan-06 02:30N 37°08' E 003°25'612.8
2018-Jan-06 02:00N 37°09' E 003°33'612.9
2018-Jan-06 01:30N 37°10' E 003°41'712.6
2018-Jan-06 00:58N 37°11' E 003°49'613.0
2018-Jan-06 00:29N 37°12' E 003°57'812.6
2018-Jan-05 23:51N 37°13' E 004°07'412.2
2018-Jan-05 23:30N 37°14' E 004°12'21512.2
2018-Jan-05 05:52N 38°25' E 008°29'  

Dump ship's entire track history